sensor_id;sensor_type;location;lat;lon;timestamp;P1;durP1;ratioP1;P2;durP2;ratioP2
16330;SDS011;8275;48.206;16.340;2023-02-28T00:01:34;5.73;;;5.23;;
16330;SDS011;8275;48.206;16.340;2023-02-28T00:04:03;8.13;;;5.90;;
16330;SDS011;8275;48.206;16.340;2023-02-28T00:06:32;6.83;;;5.90;;
16330;SDS011;8275;48.206;16.340;2023-02-28T00:09:00;6.87;;;6.00;;
16330;SDS011;8275;48.206;16.340;2023-02-28T00:11:29;8.43;;;6.83;;
16330;SDS011;8275;48.206;16.340;2023-02-28T00:13:57;7.77;;;6.67;;
16330;SDS011;8275;48.206;16.340;2023-02-28T00:16:27;8.87;;;6.53;;
16330;SDS011;8275;48.206;16.340;2023-02-28T00:18:57;8.87;;;6.97;;
16330;SDS011;8275;48.206;16.340;2023-02-28T00:21:25;8.33;;;7.20;;
16330;SDS011;8275;48.206;16.340;2023-02-28T00:23:54;10.53;;;6.30;;
16330;SDS011;8275;48.206;16.340;2023-02-28T00:26:22;6.60;;;5.70;;
16330;SDS011;8275;48.206;16.340;2023-02-28T00:28:51;10.07;;;6.70;;
16330;SDS011;8275;48.206;16.340;2023-02-28T00:31:20;11.13;;;6.10;;
16330;SDS011;8275;48.206;16.340;2023-02-28T00:33:48;8.00;;;5.47;;
16330;SDS011;8275;48.206;16.340;2023-02-28T00:36:19;7.90;;;6.80;;
16330;SDS011;8275;48.206;16.340;2023-02-28T00:38:47;7.70;;;6.97;;
16330;SDS011;8275;48.206;16.340;2023-02-28T00:41:16;9.13;;;6.23;;
16330;SDS011;8275;48.206;16.340;2023-02-28T00:43:45;7.10;;;6.40;;
16330;SDS011;8275;48.206;16.340;2023-02-28T00:46:13;7.73;;;5.83;;
16330;SDS011;8275;48.206;16.340;2023-02-28T00:48:42;7.80;;;6.77;;
16330;SDS011;8275;48.206;16.340;2023-02-28T00:51:10;9.80;;;7.10;;
16330;SDS011;8275;48.206;16.340;2023-02-28T00:53:40;8.63;;;7.03;;
16330;SDS011;8275;48.206;16.340;2023-02-28T00:56:08;9.07;;;6.23;;
16330;SDS011;8275;48.206;16.340;2023-02-28T00:58:37;10.30;;;6.47;;
16330;SDS011;8275;48.206;16.340;2023-02-28T01:01:05;11.40;;;7.83;;
16330;SDS011;8275;48.206;16.340;2023-02-28T01:03:34;6.37;;;5.70;;
16330;SDS011;8275;48.206;16.340;2023-02-28T01:06:03;8.00;;;6.23;;
16330;SDS011;8275;48.206;16.340;2023-02-28T01:08:32;9.40;;;7.10;;
16330;SDS011;8275;48.206;16.340;2023-02-28T01:11:08;11.63;;;6.73;;
16330;SDS011;8275;48.206;16.340;2023-02-28T01:13:37;7.97;;;6.87;;
16330;SDS011;8275;48.206;16.340;2023-02-28T01:16:06;10.13;;;6.97;;
16330;SDS011;8275;48.206;16.340;2023-02-28T01:18:35;6.93;;;6.17;;
16330;SDS011;8275;48.206;16.340;2023-02-28T01:21:04;10.20;;;7.27;;
16330;SDS011;8275;48.206;16.340;2023-02-28T01:23:34;9.07;;;6.63;;
16330;SDS011;8275;48.206;16.340;2023-02-28T01:26:05;8.37;;;6.63;;
16330;SDS011;8275;48.206;16.340;2023-02-28T01:28:37;5.97;;;4.90;;
16330;SDS011;8275;48.206;16.340;2023-02-28T01:31:06;10.53;;;6.30;;
16330;SDS011;8275;48.206;16.340;2023-02-28T01:33:35;6.43;;;5.77;;
16330;SDS011;8275;48.206;16.340;2023-02-28T01:36:06;8.97;;;6.63;;
16330;SDS011;8275;48.206;16.340;2023-02-28T01:38:38;10.73;;;7.17;;
16330;SDS011;8275;48.206;16.340;2023-02-28T01:41:09;9.97;;;7.57;;
16330;SDS011;8275;48.206;16.340;2023-02-28T01:43:56;7.70;;;6.00;;
16330;SDS011;8275;48.206;16.340;2023-02-28T01:46:30;7.33;;;6.40;;
16330;SDS011;8275;48.206;16.340;2023-02-28T01:49:01;5.80;;;5.20;;
16330;SDS011;8275;48.206;16.340;2023-02-28T01:51:38;10.97;;;6.70;;
16330;SDS011;8275;48.206;16.340;2023-02-28T01:54:12;8.20;;;6.40;;
16330;SDS011;8275;48.206;16.340;2023-02-28T01:56:47;9.10;;;6.60;;
16330;SDS011;8275;48.206;16.340;2023-02-28T01:59:23;8.13;;;7.33;;
16330;SDS011;8275;48.206;16.340;2023-02-28T02:02:00;10.87;;;6.13;;
16330;SDS011;8275;48.206;16.340;2023-02-28T02:04:32;7.63;;;5.73;;
16330;SDS011;8275;48.206;16.340;2023-02-28T02:07:06;7.40;;;6.00;;
16330;SDS011;8275;48.206;16.340;2023-02-28T02:09:36;7.90;;;7.10;;
16330;SDS011;8275;48.206;16.340;2023-02-28T02:12:09;10.73;;;7.47;;
16330;SDS011;8275;48.206;16.340;2023-02-28T02:14:54;7.97;;;7.17;;
16330;SDS011;8275;48.206;16.340;2023-02-28T02:17:32;8.50;;;7.03;;
16330;SDS011;8275;48.206;16.340;2023-02-28T02:23:52;8.20;;;7.07;;
16330;SDS011;8275;48.206;16.340;2023-02-28T02:27:01;7.47;;;6.23;;
16330;SDS011;8275;48.206;16.340;2023-02-28T02:33:26;6.70;;;6.10;;
16330;SDS011;8275;48.206;16.340;2023-02-28T02:36:23;7.30;;;5.70;;
16330;SDS011;8275;48.206;16.340;2023-02-28T02:38:56;7.97;;;7.17;;
16330;SDS011;8275;48.206;16.340;2023-02-28T02:41:34;6.93;;;5.83;;
16330;SDS011;8275;48.206;16.340;2023-02-28T02:44:10;7.53;;;6.73;;
16330;SDS011;8275;48.206;16.340;2023-02-28T02:46:45;8.50;;;7.53;;
16330;SDS011;8275;48.206;16.340;2023-02-28T02:49:19;9.57;;;7.37;;
16330;SDS011;8275;48.206;16.340;2023-02-28T02:51:55;8.30;;;6.23;;
16330;SDS011;8275;48.206;16.340;2023-02-28T02:54:28;10.67;;;7.17;;
16330;SDS011;8275;48.206;16.340;2023-02-28T02:57:01;20.53;;;7.87;;
16330;SDS011;8275;48.206;16.340;2023-02-28T02:59:34;9.07;;;6.80;;
16330;SDS011;8275;48.206;16.340;2023-02-28T03:02:06;8.40;;;7.50;;
16330;SDS011;8275;48.206;16.340;2023-02-28T03:04:40;7.60;;;6.10;;
16330;SDS011;8275;48.206;16.340;2023-02-28T03:07:14;7.87;;;7.13;;
16330;SDS011;8275;48.206;16.340;2023-02-28T03:09:49;10.10;;;6.97;;
16330;SDS011;8275;48.206;16.340;2023-02-28T03:12:19;8.00;;;6.33;;
16330;SDS011;8275;48.206;16.340;2023-02-28T03:14:54;7.40;;;6.10;;
16330;SDS011;8275;48.206;16.340;2023-02-28T03:20:25;11.33;;;7.73;;
16330;SDS011;8275;48.206;16.340;2023-02-28T03:23:10;12.13;;;6.40;;
16330;SDS011;8275;48.206;16.340;2023-02-28T03:25:47;11.30;;;7.87;;
16330;SDS011;8275;48.206;16.340;2023-02-28T03:28:28;10.47;;;6.97;;
16330;SDS011;8275;48.206;16.340;2023-02-28T03:31:04;9.47;;;7.83;;
16330;SDS011;8275;48.206;16.340;2023-02-28T03:33:42;8.53;;;7.60;;
16330;SDS011;8275;48.206;16.340;2023-02-28T03:36:21;9.60;;;7.10;;
16330;SDS011;8275;48.206;16.340;2023-02-28T03:38:56;7.70;;;6.20;;
16330;SDS011;8275;48.206;16.340;2023-02-28T03:41:30;10.80;;;6.70;;
16330;SDS011;8275;48.206;16.340;2023-02-28T03:44:06;11.33;;;7.00;;
16330;SDS011;8275;48.206;16.340;2023-02-28T03:46:42;7.67;;;6.43;;
16330;SDS011;8275;48.206;16.340;2023-02-28T03:49:16;7.63;;;6.67;;
16330;SDS011;8275;48.206;16.340;2023-02-28T03:51:50;7.83;;;6.80;;
16330;SDS011;8275;48.206;16.340;2023-02-28T03:54:23;8.23;;;6.53;;
16330;SDS011;8275;48.206;16.340;2023-02-28T03:56:57;9.20;;;6.90;;
16330;SDS011;8275;48.206;16.340;2023-02-28T03:59:34;8.83;;;6.33;;
16330;SDS011;8275;48.206;16.340;2023-02-28T04:02:07;8.20;;;6.43;;
16330;SDS011;8275;48.206;16.340;2023-02-28T04:04:36;10.87;;;8.07;;
16330;SDS011;8275;48.206;16.340;2023-02-28T04:07:07;7.00;;;6.30;;
16330;SDS011;8275;48.206;16.340;2023-02-28T04:09:40;7.83;;;6.37;;
16330;SDS011;8275;48.206;16.340;2023-02-28T04:12:09;10.80;;;6.77;;
16330;SDS011;8275;48.206;16.340;2023-02-28T04:14:37;7.80;;;7.00;;
16330;SDS011;8275;48.206;16.340;2023-02-28T04:17:06;7.47;;;6.67;;
16330;SDS011;8275;48.206;16.340;2023-02-28T04:19:34;10.37;;;6.83;;
16330;SDS011;8275;48.206;16.340;2023-02-28T04:22:03;9.23;;;8.00;;
16330;SDS011;8275;48.206;16.340;2023-02-28T04:24:31;9.67;;;8.03;;
16330;SDS011;8275;48.206;16.340;2023-02-28T04:27:02;9.17;;;7.87;;
16330;SDS011;8275;48.206;16.340;2023-02-28T04:29:31;10.80;;;7.20;;
16330;SDS011;8275;48.206;16.340;2023-02-28T04:32:00;9.50;;;7.90;;
16330;SDS011;8275;48.206;16.340;2023-02-28T04:34:30;10.07;;;7.50;;
16330;SDS011;8275;48.206;16.340;2023-02-28T04:36:59;9.23;;;7.47;;
16330;SDS011;8275;48.206;16.340;2023-02-28T04:39:39;9.77;;;7.07;;
16330;SDS011;8275;48.206;16.340;2023-02-28T04:42:10;11.73;;;8.63;;
16330;SDS011;8275;48.206;16.340;2023-02-28T04:44:39;10.30;;;9.03;;
16330;SDS011;8275;48.206;16.340;2023-02-28T04:47:08;22.57;;;8.87;;
16330;SDS011;8275;48.206;16.340;2023-02-28T04:49:37;11.33;;;7.00;;
16330;SDS011;8275;48.206;16.340;2023-02-28T04:52:07;10.00;;;8.63;;
16330;SDS011;8275;48.206;16.340;2023-02-28T04:54:36;8.00;;;6.67;;
16330;SDS011;8275;48.206;16.340;2023-02-28T04:57:06;9.50;;;7.97;;
16330;SDS011;8275;48.206;16.340;2023-02-28T04:59:35;9.00;;;7.77;;
16330;SDS011;8275;48.206;16.340;2023-02-28T05:02:04;9.00;;;5.63;;
16330;SDS011;8275;48.206;16.340;2023-02-28T05:04:34;8.50;;;7.03;;
16330;SDS011;8275;48.206;16.340;2023-02-28T05:07:03;9.50;;;6.77;;
16330;SDS011;8275;48.206;16.340;2023-02-28T05:09:32;8.67;;;6.57;;
16330;SDS011;8275;48.206;16.340;2023-02-28T05:12:00;10.73;;;7.80;;
16330;SDS011;8275;48.206;16.340;2023-02-28T05:14:29;8.90;;;7.17;;
16330;SDS011;8275;48.206;16.340;2023-02-28T05:16:59;9.97;;;7.10;;
16330;SDS011;8275;48.206;16.340;2023-02-28T05:19:27;8.73;;;7.20;;
16330;SDS011;8275;48.206;16.340;2023-02-28T05:21:56;12.23;;;8.10;;
16330;SDS011;8275;48.206;16.340;2023-02-28T05:24:24;7.97;;;6.60;;
16330;SDS011;8275;48.206;16.340;2023-02-28T05:26:53;11.83;;;8.03;;
16330;SDS011;8275;48.206;16.340;2023-02-28T05:29:22;10.17;;;7.73;;
16330;SDS011;8275;48.206;16.340;2023-02-28T05:31:51;9.50;;;7.90;;
16330;SDS011;8275;48.206;16.340;2023-02-28T05:34:21;8.70;;;6.67;;
16330;SDS011;8275;48.206;16.340;2023-02-28T05:36:49;10.13;;;8.57;;
16330;SDS011;8275;48.206;16.340;2023-02-28T05:39:18;9.30;;;7.07;;
16330;SDS011;8275;48.206;16.340;2023-02-28T05:41:46;10.60;;;6.90;;
16330;SDS011;8275;48.206;16.340;2023-02-28T05:44:15;9.30;;;7.70;;
16330;SDS011;8275;48.206;16.340;2023-02-28T05:46:43;8.93;;;7.73;;
16330;SDS011;8275;48.206;16.340;2023-02-28T05:49:11;9.53;;;6.83;;
16330;SDS011;8275;48.206;16.340;2023-02-28T05:51:41;12.17;;;9.03;;
16330;SDS011;8275;48.206;16.340;2023-02-28T05:54:10;9.70;;;7.73;;
16330;SDS011;8275;48.206;16.340;2023-02-28T05:56:39;10.40;;;8.30;;
16330;SDS011;8275;48.206;16.340;2023-02-28T05:59:10;7.93;;;6.80;;
16330;SDS011;8275;48.206;16.340;2023-02-28T06:01:39;9.23;;;6.80;;
16330;SDS011;8275;48.206;16.340;2023-02-28T06:04:15;10.97;;;7.57;;
16330;SDS011;8275;48.206;16.340;2023-02-28T06:06:58;11.70;;;7.47;;
16330;SDS011;8275;48.206;16.340;2023-02-28T06:09:27;9.43;;;7.57;;
16330;SDS011;8275;48.206;16.340;2023-02-28T06:11:57;8.10;;;7.23;;
16330;SDS011;8275;48.206;16.340;2023-02-28T06:14:26;10.60;;;6.50;;
16330;SDS011;8275;48.206;16.340;2023-02-28T06:16:54;10.73;;;6.30;;
16330;SDS011;8275;48.206;16.340;2023-02-28T06:19:24;8.87;;;7.53;;
16330;SDS011;8275;48.206;16.340;2023-02-28T06:21:53;10.30;;;7.23;;
16330;SDS011;8275;48.206;16.340;2023-02-28T06:24:24;18.37;;;8.17;;
16330;SDS011;8275;48.206;16.340;2023-02-28T06:26:55;10.23;;;7.50;;
16330;SDS011;8275;48.206;16.340;2023-02-28T06:29:25;7.93;;;7.20;;
16330;SDS011;8275;48.206;16.340;2023-02-28T06:31:53;10.73;;;7.63;;
16330;SDS011;8275;48.206;16.340;2023-02-28T06:34:22;8.63;;;6.93;;
16330;SDS011;8275;48.206;16.340;2023-02-28T06:36:51;11.13;;;9.87;;
16330;SDS011;8275;48.206;16.340;2023-02-28T06:39:20;8.93;;;7.13;;
16330;SDS011;8275;48.206;16.340;2023-02-28T06:41:49;9.27;;;8.30;;
16330;SDS011;8275;48.206;16.340;2023-02-28T06:44:22;12.80;;;7.20;;
16330;SDS011;8275;48.206;16.340;2023-02-28T06:46:51;13.83;;;8.77;;
16330;SDS011;8275;48.206;16.340;2023-02-28T06:49:19;10.83;;;9.13;;
16330;SDS011;8275;48.206;16.340;2023-02-28T06:51:48;11.33;;;8.90;;
16330;SDS011;8275;48.206;16.340;2023-02-28T06:54:17;8.67;;;7.77;;
16330;SDS011;8275;48.206;16.340;2023-02-28T06:56:45;9.17;;;7.87;;
16330;SDS011;8275;48.206;16.340;2023-02-28T06:59:15;9.33;;;8.33;;
16330;SDS011;8275;48.206;16.340;2023-02-28T07:01:44;41.73;;;9.20;;
16330;SDS011;8275;48.206;16.340;2023-02-28T07:04:12;14.80;;;9.87;;
16330;SDS011;8275;48.206;16.340;2023-02-28T07:06:41;12.97;;;8.83;;
16330;SDS011;8275;48.206;16.340;2023-02-28T07:09:09;12.00;;;9.37;;
16330;SDS011;8275;48.206;16.340;2023-02-28T07:11:38;17.20;;;9.63;;
16330;SDS011;8275;48.206;16.340;2023-02-28T07:14:06;10.50;;;8.03;;
16330;SDS011;8275;48.206;16.340;2023-02-28T07:16:36;10.10;;;9.13;;
16330;SDS011;8275;48.206;16.340;2023-02-28T07:19:05;17.80;;;9.87;;
16330;SDS011;8275;48.206;16.340;2023-02-28T07:21:33;12.37;;;9.23;;
16330;SDS011;8275;48.206;16.340;2023-02-28T07:24:02;11.20;;;8.67;;
16330;SDS011;8275;48.206;16.340;2023-02-28T07:26:31;27.17;;;10.90;;
16330;SDS011;8275;48.206;16.340;2023-02-28T07:29:00;16.03;;;11.43;;
16330;SDS011;8275;48.206;16.340;2023-02-28T07:31:29;11.40;;;10.20;;
16330;SDS011;8275;48.206;16.340;2023-02-28T07:33:59;14.60;;;11.00;;
16330;SDS011;8275;48.206;16.340;2023-02-28T07:36:28;16.83;;;10.93;;
16330;SDS011;8275;48.206;16.340;2023-02-28T07:38:58;12.70;;;10.70;;
16330;SDS011;8275;48.206;16.340;2023-02-28T07:41:27;11.73;;;9.70;;
16330;SDS011;8275;48.206;16.340;2023-02-28T07:43:56;10.90;;;9.68;;
16330;SDS011;8275;48.206;16.340;2023-02-28T07:46:26;12.18;;;10.10;;
16330;SDS011;8275;48.206;16.340;2023-02-28T07:48:56;19.52;;;12.57;;
16330;SDS011;8275;48.206;16.340;2023-02-28T07:51:27;11.45;;;10.20;;
16330;SDS011;8275;48.206;16.340;2023-02-28T07:53:56;18.25;;;11.93;;
16330;SDS011;8275;48.206;16.340;2023-02-28T07:56:25;11.55;;;9.65;;
16330;SDS011;8275;48.206;16.340;2023-02-28T07:58:54;15.77;;;10.02;;
16330;SDS011;8275;48.206;16.340;2023-02-28T08:01:23;18.10;;;9.93;;
16330;SDS011;8275;48.206;16.340;2023-02-28T08:03:51;16.05;;;10.27;;
16330;SDS011;8275;48.206;16.340;2023-02-28T08:06:21;11.18;;;10.10;;
16330;SDS011;8275;48.206;16.340;2023-02-28T08:08:53;11.70;;;10.35;;
16330;SDS011;8275;48.206;16.340;2023-02-28T08:11:22;18.75;;;11.13;;
16330;SDS011;8275;48.206;16.340;2023-02-28T08:13:51;10.38;;;9.38;;
16330;SDS011;8275;48.206;16.340;2023-02-28T08:16:21;12.35;;;10.95;;
16330;SDS011;8275;48.206;16.340;2023-02-28T08:18:50;14.50;;;10.80;;
16330;SDS011;8275;48.206;16.340;2023-02-28T08:21:20;13.13;;;11.77;;
16330;SDS011;8275;48.206;16.340;2023-02-28T08:23:49;11.63;;;10.43;;
16330;SDS011;8275;48.206;16.340;2023-02-28T08:26:20;18.33;;;11.73;;
16330;SDS011;8275;48.206;16.340;2023-02-28T08:28:48;12.27;;;11.02;;
16330;SDS011;8275;48.206;16.340;2023-02-28T08:31:17;14.65;;;11.50;;
16330;SDS011;8275;48.206;16.340;2023-02-28T08:33:46;15.68;;;10.25;;
16330;SDS011;8275;48.206;16.340;2023-02-28T08:36:17;12.43;;;10.48;;
16330;SDS011;8275;48.206;16.340;2023-02-28T08:38:46;14.38;;;11.57;;
16330;SDS011;8275;48.206;16.340;2023-02-28T08:41:15;12.88;;;10.60;;
16330;SDS011;8275;48.206;16.340;2023-02-28T08:43:45;11.70;;;10.18;;
16330;SDS011;8275;48.206;16.340;2023-02-28T08:46:13;11.52;;;9.75;;
16330;SDS011;8275;48.206;16.340;2023-02-28T08:48:42;11.43;;;10.32;;
16330;SDS011;8275;48.206;16.340;2023-02-28T08:51:12;12.10;;;9.07;;
16330;SDS011;8275;48.206;16.340;2023-02-28T08:53:45;17.38;;;9.95;;
16330;SDS011;8275;48.206;16.340;2023-02-28T08:56:15;13.73;;;12.32;;
16330;SDS011;8275;48.206;16.340;2023-02-28T08:58:47;13.02;;;11.60;;
16330;SDS011;8275;48.206;16.340;2023-02-28T09:01:17;13.20;;;10.30;;
16330;SDS011;8275;48.206;16.340;2023-02-28T09:03:47;11.98;;;9.35;;
16330;SDS011;8275;48.206;16.340;2023-02-28T09:06:18;12.23;;;10.85;;
16330;SDS011;8275;48.206;16.340;2023-02-28T09:08:49;12.63;;;11.32;;
16330;SDS011;8275;48.206;16.340;2023-02-28T09:11:17;10.60;;;9.55;;
16330;SDS011;8275;48.206;16.340;2023-02-28T09:13:48;12.30;;;11.02;;
16330;SDS011;8275;48.206;16.340;2023-02-28T09:16:16;14.20;;;12.75;;
16330;SDS011;8275;48.206;16.340;2023-02-28T09:18:45;10.50;;;9.35;;
16330;SDS011;8275;48.206;16.340;2023-02-28T09:21:14;12.65;;;8.38;;
16330;SDS011;8275;48.206;16.340;2023-02-28T09:23:45;11.98;;;10.80;;
16330;SDS011;8275;48.206;16.340;2023-02-28T09:26:16;10.95;;;9.52;;
16330;SDS011;8275;48.206;16.340;2023-02-28T09:28:50;11.27;;;9.43;;
16330;SDS011;8275;48.206;16.340;2023-02-28T09:31:20;10.80;;;9.70;;
16330;SDS011;8275;48.206;16.340;2023-02-28T09:33:51;10.02;;;9.00;;
16330;SDS011;8275;48.206;16.340;2023-02-28T09:36:23;8.73;;;7.85;;
16330;SDS011;8275;48.206;16.340;2023-02-28T09:39:09;11.45;;;10.35;;
16330;SDS011;8275;48.206;16.340;2023-02-28T09:41:39;14.35;;;12.85;;
16330;SDS011;8275;48.206;16.340;2023-02-28T09:44:17;12.32;;;9.55;;
16330;SDS011;8275;48.206;16.340;2023-02-28T09:46:56;10.68;;;9.73;;
16330;SDS011;8275;48.206;16.340;2023-02-28T09:49:33;13.15;;;9.45;;
16330;SDS011;8275;48.206;16.340;2023-02-28T09:52:09;9.05;;;8.02;;
16330;SDS011;8275;48.206;16.340;2023-02-28T09:54:41;10.38;;;8.88;;
16330;SDS011;8275;48.206;16.340;2023-02-28T09:57:13;10.98;;;9.05;;
16330;SDS011;8275;48.206;16.340;2023-02-28T09:59:52;11.38;;;9.68;;
16330;SDS011;8275;48.206;16.340;2023-02-28T10:05:30;13.13;;;8.93;;
16330;SDS011;8275;48.206;16.340;2023-02-28T10:08:07;11.80;;;10.13;;
16330;SDS011;8275;48.206;16.340;2023-02-28T10:10:42;12.90;;;10.15;;
16330;SDS011;8275;48.206;16.340;2023-02-28T10:13:15;12.85;;;10.63;;
16330;SDS011;8275;48.206;16.340;2023-02-28T10:15:55;12.25;;;10.82;;
16330;SDS011;8275;48.206;16.340;2023-02-28T10:18:30;10.77;;;9.48;;
16330;SDS011;8275;48.206;16.340;2023-02-28T10:21:13;10.32;;;9.15;;
16330;SDS011;8275;48.206;16.340;2023-02-28T10:23:48;12.95;;;11.13;;
16330;SDS011;8275;48.206;16.340;2023-02-28T10:26:26;11.23;;;10.13;;
16330;SDS011;8275;48.206;16.340;2023-02-28T10:28:58;14.88;;;12.02;;
16330;SDS011;8275;48.206;16.340;2023-02-28T10:31:28;13.88;;;10.13;;
16330;SDS011;8275;48.206;16.340;2023-02-28T10:33:57;11.40;;;10.02;;
16330;SDS011;8275;48.206;16.340;2023-02-28T10:36:25;11.30;;;9.70;;
16330;SDS011;8275;48.206;16.340;2023-02-28T10:38:55;11.50;;;10.05;;
16330;SDS011;8275;48.206;16.340;2023-02-28T10:41:27;11.55;;;10.27;;
16330;SDS011;8275;48.206;16.340;2023-02-28T10:44:14;11.50;;;9.88;;
16330;SDS011;8275;48.206;16.340;2023-02-28T10:46:49;12.27;;;9.98;;
16330;SDS011;8275;48.206;16.340;2023-02-28T10:49:20;10.93;;;9.68;;
16330;SDS011;8275;48.206;16.340;2023-02-28T10:51:51;11.98;;;9.45;;
16330;SDS011;8275;48.206;16.340;2023-02-28T10:54:26;11.57;;;9.98;;
16330;SDS011;8275;48.206;16.340;2023-02-28T10:57:05;12.05;;;10.05;;
16330;SDS011;8275;48.206;16.340;2023-02-28T10:59:41;12.57;;;9.70;;
16330;SDS011;8275;48.206;16.340;2023-02-28T11:02:31;10.50;;;9.40;;
16330;SDS011;8275;48.206;16.340;2023-02-28T11:05:02;11.93;;;10.25;;
16330;SDS011;8275;48.206;16.340;2023-02-28T11:07:53;13.80;;;10.65;;
16330;SDS011;8275;48.206;16.340;2023-02-28T11:10:25;13.35;;;11.95;;
16330;SDS011;8275;48.206;16.340;2023-02-28T11:12:58;12.27;;;10.98;;
16330;SDS011;8275;48.206;16.340;2023-02-28T11:15:27;12.45;;;11.25;;
16330;SDS011;8275;48.206;16.340;2023-02-28T11:18:02;17.00;;;13.68;;
16330;SDS011;8275;48.206;16.340;2023-02-28T11:20:49;13.40;;;12.00;;
16330;SDS011;8275;48.206;16.340;2023-02-28T11:23:21;13.93;;;12.38;;
16330;SDS011;8275;48.206;16.340;2023-02-28T11:25:54;14.77;;;13.30;;
16330;SDS011;8275;48.206;16.340;2023-02-28T11:28:28;12.27;;;11.18;;
16330;SDS011;8275;48.206;16.340;2023-02-28T11:31:04;11.43;;;10.43;;
16330;SDS011;8275;48.206;16.340;2023-02-28T11:33:45;13.73;;;12.32;;
16330;SDS011;8275;48.206;16.340;2023-02-28T11:36:18;11.32;;;10.15;;
16330;SDS011;8275;48.206;16.340;2023-02-28T11:38:51;15.68;;;12.00;;
16330;SDS011;8275;48.206;16.340;2023-02-28T11:41:27;13.45;;;12.02;;
16330;SDS011;8275;48.206;16.340;2023-02-28T11:44:18;13.25;;;12.00;;
16330;SDS011;8275;48.206;16.340;2023-02-28T11:47:04;12.68;;;11.40;;
16330;SDS011;8275;48.206;16.340;2023-02-28T11:49:45;11.88;;;10.70;;
16330;SDS011;8275;48.206;16.340;2023-02-28T11:52:26;12.95;;;11.65;;
16330;SDS011;8275;48.206;16.340;2023-02-28T11:55:11;12.00;;;10.93;;
16330;SDS011;8275;48.206;16.340;2023-02-28T12:00:52;11.55;;;10.45;;
16330;SDS011;8275;48.206;16.340;2023-02-28T12:03:33;12.00;;;10.55;;
16330;SDS011;8275;48.206;16.340;2023-02-28T12:06:22;12.75;;;11.55;;
16330;SDS011;8275;48.206;16.340;2023-02-28T12:09:11;12.13;;;10.98;;
16330;SDS011;8275;48.206;16.340;2023-02-28T12:11:56;13.45;;;11.90;;
16330;SDS011;8275;48.206;16.340;2023-02-28T12:14:46;11.32;;;10.38;;
16330;SDS011;8275;48.206;16.340;2023-02-28T12:17:43;11.65;;;9.98;;
16330;SDS011;8275;48.206;16.340;2023-02-28T12:20:25;13.20;;;10.80;;
16330;SDS011;8275;48.206;16.340;2023-02-28T12:23:10;10.98;;;9.93;;
16330;SDS011;8275;48.206;16.340;2023-02-28T12:26:04;12.52;;;10.23;;
16330;SDS011;8275;48.206;16.340;2023-02-28T12:28:43;12.55;;;10.40;;
16330;SDS011;8275;48.206;16.340;2023-02-28T12:31:17;11.98;;;10.75;;
16330;SDS011;8275;48.206;16.340;2023-02-28T12:33:51;12.90;;;11.63;;
16330;SDS011;8275;48.206;16.340;2023-02-28T12:36:26;11.25;;;10.27;;
16330;SDS011;8275;48.206;16.340;2023-02-28T12:38:58;11.48;;;10.45;;
16330;SDS011;8275;48.206;16.340;2023-02-28T12:41:34;11.05;;;9.95;;
16330;SDS011;8275;48.206;16.340;2023-02-28T12:44:09;10.68;;;9.73;;
16330;SDS011;8275;48.206;16.340;2023-02-28T12:46:45;11.10;;;10.10;;
16330;SDS011;8275;48.206;16.340;2023-02-28T12:49:19;14.20;;;12.80;;
16330;SDS011;8275;48.206;16.340;2023-02-28T12:51:53;11.13;;;10.05;;
16330;SDS011;8275;48.206;16.340;2023-02-28T12:54:24;10.75;;;9.80;;
16330;SDS011;8275;48.206;16.340;2023-02-28T12:56:58;9.88;;;8.98;;
16330;SDS011;8275;48.206;16.340;2023-02-28T12:59:36;9.70;;;8.80;;
16330;SDS011;8275;48.206;16.340;2023-02-28T13:02:18;10.30;;;9.30;;
16330;SDS011;8275;48.206;16.340;2023-02-28T13:05:19;11.00;;;9.02;;
16330;SDS011;8275;48.206;16.340;2023-02-28T13:08:29;8.80;;;8.00;;
16330;SDS011;8275;48.206;16.340;2023-02-28T13:11:40;9.63;;;8.73;;
16330;SDS011;8275;48.206;16.340;2023-02-28T13:17:09;10.05;;;8.93;;
16330;SDS011;8275;48.206;16.340;2023-02-28T13:19:41;10.65;;;8.85;;
16330;SDS011;8275;48.206;16.340;2023-02-28T13:22:17;8.73;;;7.90;;
16330;SDS011;8275;48.206;16.340;2023-02-28T13:25:14;9.93;;;8.77;;
16330;SDS011;8275;48.206;16.340;2023-02-28T13:35:13;9.40;;;8.50;;
16330;SDS011;8275;48.206;16.340;2023-02-28T13:38:12;9.75;;;8.85;;
16330;SDS011;8275;48.206;16.340;2023-02-28T13:44:09;8.30;;;7.47;;
16330;SDS011;8275;48.206;16.340;2023-02-28T13:52:49;10.50;;;9.60;;
16330;SDS011;8275;48.206;16.340;2023-02-28T13:55:41;9.52;;;8.55;;
16330;SDS011;8275;48.206;16.340;2023-02-28T13:58:22;12.70;;;11.32;;
16330;SDS011;8275;48.206;16.340;2023-02-28T14:01:12;12.05;;;10.73;;
16330;SDS011;8275;48.206;16.340;2023-02-28T14:07:21;11.15;;;8.23;;
16330;SDS011;8275;48.206;16.340;2023-02-28T14:09:57;10.88;;;9.23;;
16330;SDS011;8275;48.206;16.340;2023-02-28T14:15:30;12.32;;;10.48;;
16330;SDS011;8275;48.206;16.340;2023-02-28T14:18:20;10.10;;;9.10;;
16330;SDS011;8275;48.206;16.340;2023-02-28T14:20:59;12.00;;;10.20;;
16330;SDS011;8275;48.206;16.340;2023-02-28T14:27:16;13.05;;;9.68;;
16330;SDS011;8275;48.206;16.340;2023-02-28T14:30:20;10.38;;;9.23;;
16330;SDS011;8275;48.206;16.340;2023-02-28T14:33:22;9.23;;;8.32;;
16330;SDS011;8275;48.206;16.340;2023-02-28T14:36:27;9.05;;;8.15;;
16330;SDS011;8275;48.206;16.340;2023-02-28T14:39:05;12.00;;;9.73;;
16330;SDS011;8275;48.206;16.340;2023-02-28T14:41:40;9.35;;;8.40;;
16330;SDS011;8275;48.206;16.340;2023-02-28T14:44:15;9.77;;;8.30;;
16330;SDS011;8275;48.206;16.340;2023-02-28T14:46:46;12.52;;;9.50;;
16330;SDS011;8275;48.206;16.340;2023-02-28T14:49:20;7.93;;;7.18;;
16330;SDS011;8275;48.206;16.340;2023-02-28T14:52:03;11.57;;;9.75;;
16330;SDS011;8275;48.206;16.340;2023-02-28T14:54:40;11.85;;;10.63;;
16330;SDS011;8275;48.206;16.340;2023-02-28T14:57:20;13.25;;;9.82;;
16330;SDS011;8275;48.206;16.340;2023-02-28T14:59:58;14.73;;;9.55;;
16330;SDS011;8275;48.206;16.340;2023-02-28T15:02:30;9.32;;;8.43;;
16330;SDS011;8275;48.206;16.340;2023-02-28T15:05:15;10.15;;;9.18;;
16330;SDS011;8275;48.206;16.340;2023-02-28T15:08:02;12.70;;;8.63;;
16330;SDS011;8275;48.206;16.340;2023-02-28T15:10:34;9.50;;;8.50;;
16330;SDS011;8275;48.206;16.340;2023-02-28T15:13:04;10.50;;;9.27;;
16330;SDS011;8275;48.206;16.340;2023-02-28T15:15:40;11.60;;;9.02;;
16330;SDS011;8275;48.206;16.340;2023-02-28T15:18:31;9.68;;;8.68;;
16330;SDS011;8275;48.206;16.340;2023-02-28T15:21:12;10.43;;;9.43;;
16330;SDS011;8275;48.206;16.340;2023-02-28T15:23:46;11.48;;;9.43;;
16330;SDS011;8275;48.206;16.340;2023-02-28T15:26:19;8.52;;;7.72;;
16330;SDS011;8275;48.206;16.340;2023-02-28T15:28:51;9.40;;;8.50;;
16330;SDS011;8275;48.206;16.340;2023-02-28T15:31:26;10.10;;;9.13;;
16330;SDS011;8275;48.206;16.340;2023-02-28T15:34:12;10.23;;;9.23;;
16330;SDS011;8275;48.206;16.340;2023-02-28T15:36:49;9.20;;;8.25;;
16330;SDS011;8275;48.206;16.340;2023-02-28T15:39:20;13.70;;;9.82;;
16330;SDS011;8275;48.206;16.340;2023-02-28T15:41:51;11.20;;;9.77;;
16330;SDS011;8275;48.206;16.340;2023-02-28T15:44:36;10.95;;;9.35;;
16330;SDS011;8275;48.206;16.340;2023-02-28T15:47:06;10.65;;;9.18;;
16330;SDS011;8275;48.206;16.340;2023-02-28T15:49:45;12.10;;;9.50;;
16330;SDS011;8275;48.206;16.340;2023-02-28T15:52:17;9.00;;;8.02;;
16330;SDS011;8275;48.206;16.340;2023-02-28T15:54:51;8.63;;;7.63;;
16330;SDS011;8275;48.206;16.340;2023-02-28T15:57:20;9.38;;;8.43;;
16330;SDS011;8275;48.206;16.340;2023-02-28T15:59:53;7.85;;;7.13;;
16330;SDS011;8275;48.206;16.340;2023-02-28T16:02:30;8.77;;;7.53;;